NEODyS-2

Near Earth Objects - Dynamic Site
NEODyS ∴ Observatories ∴ Site 691 ∴ Obs & residuals
Contact »
691  ▹ 
OBSERVATIONS AND RESIDUALS

691-Steward Observatory, Kitt Peak-Spacewatch

Detections | Residuals | Detections & Residuals

[1-200] [201-400] [401-600] [601-800] [801-1000] [1001-1200] [1201-1400] [1401-1600] [1601-1800] [1801-2000] [2001-2200] [2201-2400] [2401-2600] [2601-2800] [2801-3000] [3001-3200] [3201-3400] [3401-3600] [3601-3800] [3801-4000] [4001-4200] [4201-4400] [4401-4600] [4601-4800] [4801-5000] [5001-5200] [5201-5400] [5401-5600] [5601-5800] [5801-6000] [6001-6200] [6201-6400] [6401-6600] [6601-6800] [6801-7000] [7001-7200] [7201-7400] [7401-7600] [7601-7800] [7801-8000] [8001-8200] [8201-8400] [8401-8600] [8601-8800] [8801-9000] [9001-9200] [9201-9400] [9401-9600] [9601-9800] [9801-10000] [10001-10200] [10201-10400] [10401-10600] [10601-10800] [10801-11000] [11001-11200] [11201-11400] [11401-11600] [11601-11800] [11801-12000] [12001-12200] [12201-12400] [12401-12600] [12601-12800] [12801-13000] [13001-13200] [13201-13400] [13401-13600] [13601-13800] [13801-14000] [14001-14200] [14201-14400] [14401-14600] [14601-14800] [14801-15000] [15001-15200] [15201-15400] [15401-15600] [15601-15800] [15801-16000] [16001-16200] [16201-16400] [16401-16600] [16601-16800] [16801-17000] [17001-17200] [17201-17400] [17401-17600] [17601-17800] [17801-18000] [18001-18200] [18201-18400] [18401-18600] [18601-18800] [18801-19000] [19001-19200] [19201-19400] [19401-19600] [19601-19800] [19801-20000] [20001-20200] [20201-20400] [20401-20600] [20601-20800] [20801-21000] [21001-21200] [21201-21400] [21401-21600] [21601-21800] [21801-22000] [22001-22200] [22201-22400] [22401-22600] [22601-22800] [22801-23000] [23001-23200] [23201-23400] [23401-23600] [23601-23800] [23801-24000] [24001-24200] [24201-24400] [24401-24600] [24601-24800] [24801-25000] [25001-25200] [25201-25400] [25401-25600] [25601-25800] [25801-26000] [26001-26200] [26201-26400] [26401-26600] [26601-26800] [26801-27000] [27001-27200] [27201-27400] [27401-27600] [27601-27800] [27801-28000] [28001-28200] [28201-28400] [28401-28600] [28601-28800] [28801-29000] [29001-29200] [29201-29400] [29401-29600] [29601-29800] [29801-30000] [30001-30200] [30201-30400] [30401-30600] [30601-30800] [30801-31000] [31001-31200] [31201-31400] [31401-31600] [31601-31800] [31801-32000] [32001-32200] [32201-32400] [32401-32600] [32601-32800] [32801-33000] [33001-33200] [33201-33400] [33401-33600] [33601-33800] [33801-34000] [34001-34200] [34201-34400] [34401-34600] [34601-34800] [34801-35000] [35001-35200] [35201-35400] [35401-35600] [35601-35800] [35801-36000] [36001-36200] [36201-36400] [36401-36600] [36601-36800] [36801-37000] [37001-37200] [37201-37400] [37401-37600] [37601-37800] [37801-38000] [38001-38200] [38201-38400] [38401-38600] [38601-38800] [38801-39000] [39001-39200] [39201-39400] [39401-39600] [39601-39800] [39801-40000] [40001-40200] [40201-40400] [40401-40600] [40601-40800] [40801-41000] [41001-41200] [41201-41400] [41401-41600] [41601-41800] [41801-42000] [42001-42200] [42201-42400] [42401-42600] [42601-42800] [42801-43000] [43001-43200] [43201-43400] [43401-43600] [43601-43800] [43801-44000] [44001-44200] [44201-44400] [44401-44600] [44601-44800] [44801-45000] [45001-45200] [45201-45400] [45401-45600] [45601-45800] [45801-46000] [46001-46200] [46201-46400] [46401-46600] [46601-46800] [46801-47000] [47001-47200] [47201-47400] [47401-47600] [47601-47800] [47801-48000] [48001-48200] [48201-48400] [48401-48600] [48601-48800] [48801-49000] [49001-49200] [49201-49400] [49401-49600] [49601-49800] [49801-50000] [50001-50200] [50201-50388]

Designation T Tech N Date Right Ascension Declination Apparent Magnitude Star Catalog Site code χ Used A Used M
yr-mo-day precision hr:min:sec precision rms F bias residual deg min sec precision rms F bias residual mag/col rms residual
2006MD12 O C H 2016-07-13.34234 1.000E-05 22:26:28.310 1.500E-01 0.500 F -0.067 0.087 +12° 54' 11.70" 1.000E-01 0.500 F 0.396 -1.205 o 691 2.43 Yes No
2005NW44 O C H 2016-07-13.34496 1.000E-05 21:51:10.670 1.500E-01 0.500 F -0.101 0.253 -14° 01' 12.80" 1.000E-01 0.500 F 0.156 -0.541 o 691 1.20 Yes No
2016LU10 O C 2016-07-13.34732 1.000E-05 23:35:04.450 1.500E-01 0.500 F -0.259 -0.129 -03° 42' 17.80" 1.000E-01 0.500 F 0.338 -0.372 20.4 V 0.70 1.03 o 691 0.79 Yes Yes
2006MD12 O C H 2016-07-13.34967 1.000E-05 22:26:27.300 1.500E-01 0.500 F -0.067 0.881 +12° 54' 42.20" 1.000E-01 0.500 F 0.396 -1.160 o 691 2.93 Yes No
2005NW44 O C H 2016-07-13.35229 1.000E-05 21:51:08.390 1.500E-01 0.500 F -0.101 0.202 -14° 01' 36.60" 1.000E-01 0.500 F 0.156 -0.484 o 691 1.05 Yes No
2016LU10 O C 2016-07-13.35464 1.000E-05 23:35:06.480 1.500E-01 0.500 F -0.259 -0.357 -03° 42' 12.80" 1.000E-01 0.500 F 0.338 -0.191 19.8 V 0.70 0.43 o 691 0.82 Yes Yes
2016NG38 O C H 2016-07-13.37683 1.000E-05 20:39:39.970 1.500E-01 0.500 F -0.024 -0.456 -14° 00' 50.40" 1.000E-01 0.500 F 0.203 -0.555 19.2 V 0.70 0.72 o 691 1.46 Yes Yes
2016NG38 O C H 2016-07-13.37841 1.000E-05 20:39:42.730 1.500E-01 0.500 F -0.024 -0.922 -14° 00' 40.50" 1.000E-01 0.500 F 0.203 -0.685 18.2 V 0.70 -0.28 o 691 2.34 Yes Yes
2016NG38 O C H 2016-07-13.38000 1.000E-05 20:39:45.600 1.500E-01 0.500 F -0.024 -0.049 -14° 00' 30.30" 1.000E-01 0.500 F 0.203 -0.588 18.7 V 0.70 0.22 o 691 1.20 Yes Yes
2016NU32 O C H 2016-07-13.39016 1.000E-05 23:32:27.480 1.500E-01 0.500 F -0.282 0.181 -17° 49' 12.40" 1.000E-01 0.500 F 0.137 -0.327 o 691 0.92 Yes No
2016NU32 O C H 2016-07-13.39576 1.000E-05 23:32:29.800 1.500E-01 0.500 F -0.282 -0.327 -17° 50' 30.40" 1.000E-01 0.500 F 0.137 1.797 o 691 3.20 No No
2016NU32 O C H 2016-07-13.40138 1.000E-05 23:32:32.250 1.500E-01 0.500 F -0.282 0.950 -17° 51' 54.30" 1.000E-01 0.500 F 0.137 -1.730 o 691 3.42 No No
2016NV38 O C H 2016-07-13.41285 1.000E-05 01:28:37.530 1.500E-01 0.500 F -0.218 -0.173 +23° 56' 07.40" 1.000E-01 0.500 F 0.340 -0.399 o 691 0.87 Yes No
2016NV38 O C H 2016-07-13.42177 1.000E-05 01:28:39.920 1.500E-01 0.500 F -0.218 -1.631 +23° 56' 07.40" 1.000E-01 0.500 F 0.340 -1.419 o 691 4.26 No No
2016NV38 O C H 2016-07-13.43070 1.000E-05 01:28:42.430 1.500E-01 0.500 F -0.218 -1.465 +23° 56' 09.20" 1.000E-01 0.500 F 0.340 -0.631 o 691 3.09 No No
2010NY65 O C 2016-07-14.17932 1.000E-05 16:55:40.080 1.500E-01 0.500 F 0.145 -0.218 +08° 27' 08.10" 1.000E-01 0.500 F 0.171 0.039 19.2 V 0.70 0.00 o 691 0.44 Yes Yes
2010NY65 O C 2016-07-14.18160 1.000E-05 16:55:40.320 1.500E-01 0.500 F 0.145 -0.256 +08° 27' 04.70" 1.000E-01 0.500 F 0.171 0.005 19.3 V 0.70 0.10 o 691 0.51 Yes Yes
2010NY65 O C 2016-07-14.18391 1.000E-05 16:55:40.560 1.500E-01 0.500 F 0.145 -0.340 +08° 27' 01.50" 1.000E-01 0.500 F 0.171 0.217 19.3 V 0.70 0.10 o 691 0.81 Yes Yes
2016NV O C H 2016-07-14.21510 1.000E-05 17:27:52.060 1.500E-01 0.500 F 0.119 -0.039 +06° 09' 09.20" 1.000E-01 0.500 F 0.221 -0.153 19.9 V 0.70 0.17 o 691 0.32 Yes Yes
2016NV O C H 2016-07-14.21739 1.000E-05 17:27:51.730 1.500E-01 0.500 F 0.119 -0.707 +06° 09' 12.70" 1.000E-01 0.500 F 0.221 -0.235 19.8 V 0.70 0.07 o 691 1.50 Yes Yes
2016NV O C H 2016-07-14.21967 1.000E-05 17:27:51.480 1.500E-01 0.500 F 0.119 -0.201 +06° 09' 16.60" 1.000E-01 0.500 F 0.221 0.100 19.9 V 0.70 0.17 o 691 0.45 Yes Yes
2001UG18 O C H 2016-07-14.22792 1.000E-05 20:54:42.430 1.500E-01 0.500 F -0.004 0.438 +10° 56' 14.50" 1.000E-01 0.500 F 0.273 -0.557 o 691 1.44 Yes No
2001UG18 O C H 2016-07-14.23853 1.000E-05 20:54:42.910 1.500E-01 0.500 F -0.004 0.597 +10° 56' 39.20" 1.000E-01 0.500 F 0.273 -0.686 o 691 1.85 Yes No
2001UG18 O C H 2016-07-14.24914 1.000E-05 20:54:43.380 1.500E-01 0.500 F -0.004 0.670 +10° 57' 03.20" 1.000E-01 0.500 F 0.273 -1.509 o 691 3.25 No No
2016MF1 O C 2016-07-14.29983 1.000E-05 20:52:19.920 1.500E-01 0.500 F 0.026 -0.267 -03° 17' 59.00" 1.000E-01 0.500 F 0.357 -0.134 19.8 V 0.70 -0.05 o 691 0.60 Yes Yes
2016NA1 O C 2016-07-14.30480 1.000E-05 20:29:00.540 1.500E-01 0.500 F -0.073 -0.195 -17° 30' 04.10" 1.000E-01 0.500 F 0.111 0.011 20.5 V 0.70 0.34 o 691 0.39 Yes Yes
2016MF1 O C 2016-07-14.30715 1.000E-05 20:52:20.600 1.500E-01 0.500 F 0.026 -0.113 -03° 18' 03.80" 1.000E-01 0.500 F 0.357 -0.071 19.7 V 0.70 -0.15 o 691 0.27 Yes Yes
2016NA1 O C 2016-07-14.31213 1.000E-05 20:29:01.070 1.500E-01 0.500 F -0.073 -0.219 -17° 29' 54.20" 1.000E-01 0.500 F 0.111 0.244 20.7 V 0.70 0.54 o 691 0.66 Yes Yes
2016MF1 O C 2016-07-14.31442 1.000E-05 20:52:21.250 1.500E-01 0.500 F 0.026 -0.320 -03° 18' 08.70" 1.000E-01 0.500 F 0.357 -0.141 19.6 V 0.70 -0.25 o 691 0.70 Yes Yes
2016NA1 O C 2016-07-14.31941 1.000E-05 20:29:01.600 1.500E-01 0.500 F -0.073 -0.177 -17° 29' 44.80" 1.000E-01 0.500 F 0.111 0.020 20.5 V 0.70 0.34 o 691 0.36 Yes Yes
2016LU10 O C 2016-07-14.38863 1.000E-05 23:40:02.830 1.500E-01 0.500 F -0.289 -0.415 -03° 30' 54.50" 1.000E-01 0.500 F 0.308 -0.073 19.7 V 0.70 0.32 o 691 0.85 Yes Yes
2016LU10 O C 2016-07-14.39560 1.000E-05 23:40:04.730 1.500E-01 0.500 F -0.289 -0.128 -03° 30' 50.10" 1.000E-01 0.500 F 0.308 -0.098 19.6 V 0.70 0.22 o 691 0.33 Yes Yes
2016LU10 O C 2016-07-14.40249 1.000E-05 23:40:06.590 1.500E-01 0.500 F -0.289 -0.074 -03° 30' 45.50" 1.000E-01 0.500 F 0.308 0.126 19.5 V 0.70 0.12 o 691 0.30 Yes Yes
2016NZ55 O C H 2016-07-26.33551 1.000E-05 20:31:31.390 1.500E-01 0.559 F -0.038 0.295 -21° 16' 15.10" 1.000E-01 0.559 F 0.018 0.607 20.8 V 0.70 0.14 o 691 1.24 Yes Yes
2016NZ55 O C H 2016-07-26.33779 1.000E-05 20:31:31.140 1.500E-01 0.559 F -0.038 -0.069 -21° 16' 24.80" 1.000E-01 0.559 F 0.018 -1.067 20.9 V 0.70 0.24 o 691 1.97 Yes Yes
2016NZ55 O C H 2016-07-26.34170 1.000E-05 20:31:30.770 1.500E-01 0.559 F -0.038 0.127 -21° 16' 39.10" 1.000E-01 0.559 F 0.018 -1.606 o 691 2.96 Yes No
2016NA1 O C H 2016-07-26.34400 1.000E-05 20:51:58.540 1.500E-01 0.500 F 0.012 0.790 -10° 57' 09.90" 1.000E-01 0.500 F 0.439 -0.452 19.2 V 0.70 0.11 o 691 1.83 Yes Yes
2016MF1 O C 2016-07-26.34630 1.000E-05 21:12:12.310 1.500E-01 0.500 F -0.054 -0.023 -06° 19' 55.20" 1.000E-01 0.500 F 0.203 0.055 19.5 V 0.70 0.05 o 691 0.12 Yes Yes
2016NZ55 O C H 2016-07-26.34861 1.000E-05 20:31:30.110 1.500E-01 0.559 F -0.038 0.386 -21° 17' 03.30" 1.000E-01 0.559 F 0.018 -1.493 o 691 2.83 Yes No
2016NA1 O C H 2016-07-26.35089 1.000E-05 20:51:59.470 1.500E-01 0.500 F 0.012 0.655 -10° 56' 50.40" 1.000E-01 0.500 F 0.439 -0.407 16.5 V 0.70 -2.59 o 691 1.55 Yes No
2016MF1 O C 2016-07-26.35319 1.000E-05 21:12:12.890 1.500E-01 0.500 F -0.054 -0.092 -06° 20' 03.00" 1.000E-01 0.500 F 0.203 0.058 19.4 V 0.70 -0.05 o 691 0.22 Yes Yes
2016NZ55 O C H 2016-07-26.35552 1.000E-05 20:31:29.410 1.500E-01 0.559 F -0.038 0.083 -21° 17' 26.10" 1.000E-01 0.559 F 0.018 0.011 o 691 0.15 Yes No
2016NA1 O C H 2016-07-26.35782 1.000E-05 20:52:00.400 1.500E-01 0.500 F 0.012 0.425 -10° 56' 31.00" 1.000E-01 0.500 F 0.439 -0.599 19.0 V 0.70 -0.09 o 691 1.48 Yes Yes
2016MF1 O C 2016-07-26.36012 1.000E-05 21:12:13.430 1.500E-01 0.500 F -0.054 -0.809 -06° 20' 11.50" 1.000E-01 0.500 F 0.203 -0.597 19.2 V 0.70 -0.25 o 691 2.02 Yes Yes
2016MS O C H 2016-07-26.36461 1.000E-05 20:28:53.710 1.500E-01 0.500 F -0.159 0.077 -14° 59' 36.40" 1.000E-01 0.500 F 0.228 -0.399 20.5 V 0.70 0.41 o 691 0.83 Yes Yes
2016NG23 O C H 2016-07-26.36699 1.000E-05 20:38:56.560 1.500E-01 0.500 F -0.098 0.776 +03° 42' 55.50" 1.000E-01 0.500 F 0.196 -0.397 o 691 1.76 Yes No
2016NC39 O C H 2016-07-26.36930 1.000E-05 22:16:54.630 1.500E-01 0.500 F -0.220 1.230 -19° 14' 53.40" 1.000E-01 0.500 F -0.036 -0.147 o 691 1.84 Yes No
2016NG23 O C H 2016-07-26.37389 1.000E-05 20:38:56.480 1.500E-01 0.500 F -0.098 0.606 +03° 43' 00.70" 1.000E-01 0.500 F 0.196 -0.578 o 691 1.68 Yes No
2016NC39 O C H 2016-07-26.37619 1.000E-05 22:16:58.270 1.500E-01 0.500 F -0.220 1.296 -19° 15' 29.40" 1.000E-01 0.500 F -0.036 -0.646 o 691 3.77 No No
2016MS O C H 2016-07-26.37839 1.000E-05 20:28:57.430 1.500E-01 0.500 F -0.159 0.349 -14° 59' 40.00" 1.000E-01 0.500 F 0.228 -0.639 20.9 V 0.70 0.81 o 691 1.49 Yes Yes
2016NG23 O C H 2016-07-26.38078 1.000E-05 20:38:56.420 1.500E-01 0.500 F -0.098 0.722 +03° 43' 06.00" 1.000E-01 0.500 F 0.196 -0.648 o 691 1.95 Yes No
2016NC39 O C H 2016-07-26.38308 1.000E-05 22:17:01.710 1.500E-01 0.500 F -0.220 -1.444 -19° 16' 02.90" 1.000E-01 0.500 F -0.036 1.290 o 691 3.45 No No
2016NQ16 O C H 2016-07-26.38657 1.000E-05 22:27:19.280 1.500E-01 0.500 F -0.172 -0.361 -27° 45' 08.50" 1.000E-01 0.500 F 0.606 -0.246 19.7 V 0.70 -0.60 o 691 0.98 Yes Yes
2016NS32 O C H 2016-07-26.38924 1.000E-05 23:26:20.190 1.500E-01 0.500 F -0.118 -0.507 +05° 25' 27.80" 1.000E-01 0.500 F 0.205 -0.819 21.0 V 0.70 0.29 o 691 2.11 Yes Yes
2016NQ16 O C H 2016-07-26.39452 1.000E-05 22:27:22.030 1.500E-01 0.500 F -0.172 0.052 -27° 45' 27.80" 1.000E-01 0.500 F 0.606 -0.371 20.3 V 0.70 0.00 o 691 0.84 Yes Yes
2016NS32 O C H 2016-07-26.39719 1.000E-05 23:26:25.680 1.500E-01 0.500 F -0.118 0.264 +05° 25' 26.60" 1.000E-01 0.500 F 0.205 -0.206 20.7 V 0.70 -0.01 o 691 0.73 Yes Yes
2016NQ16 O C H 2016-07-26.40246 1.000E-05 22:27:24.850 1.500E-01 0.500 F -0.172 1.449 -27° 45' 48.00" 1.000E-01 0.500 F 0.606 -1.488 20.2 V 0.70 -0.10 o 691 3.65 No Yes
2016NS32 O C H 2016-07-26.40513 1.000E-05 23:26:31.140 1.500E-01 0.500 F -0.118 0.696 +05° 25' 24.90" 1.000E-01 0.500 F 0.205 -0.076 o 691 1.59 Yes No
2016QU1 O C H 2016-08-24.15347 1.000E-05 16:52:27.070 1.500E-01 0.500 F -0.036 0.195 +22° 23' 46.30" 1.000E-01 0.500 F 0.171 0.079 20.4 V 0.70 0.13 o 691 0.42 Yes Yes
2016QU1 O C H 2016-08-24.15574 1.000E-05 16:52:26.240 1.500E-01 0.500 F -0.036 0.054 +22° 23' 44.40" 1.000E-01 0.500 F 0.171 -0.727 20.2 V 0.70 -0.07 o 691 1.47 Yes Yes
2016OO O C H 2016-08-24.17976 1.000E-05 20:11:06.240 1.500E-01 0.500 F -0.008 0.005 -01° 02' 31.90" 1.000E-01 0.500 F 0.079 0.318 20.2 V 0.70 0.12 o 691 0.64 Yes Yes
2016OO O C H 2016-08-24.18439 1.000E-05 20:11:06.350 1.500E-01 0.500 F -0.008 0.020 -01° 02' 21.10" 1.000E-01 0.500 F 0.079 0.147 20.1 V 0.70 0.02 o 691 0.30 Yes Yes
2016PA40 O C H 2016-08-24.19007 1.000E-05 21:32:26.110 1.500E-01 0.500 F -0.099 0.498 -00° 55' 06.00" 1.000E-01 0.500 F 0.314 -0.942 19.2 V 0.70 0.40 o 691 2.19 Yes Yes
2016PA40 O C H 2016-08-24.19138 1.000E-05 21:32:24.860 1.500E-01 0.500 F -0.099 0.385 -00° 54' 50.00" 1.000E-01 0.500 F 0.314 -0.766 18.8 V 0.70 0.00 o 691 1.76 Yes Yes
2016PA40 O C H 2016-08-24.19269 1.000E-05 21:32:23.630 1.500E-01 0.500 F -0.099 0.581 -00° 54' 34.10" 1.000E-01 0.500 F 0.314 -0.693 18.9 V 0.70 0.10 o 691 1.86 Yes Yes
2016PB8 O C H 2016-08-24.19835 1.000E-05 22:15:18.300 1.500E-01 0.500 F -0.127 0.150 -15° 58' 45.00" 1.000E-01 0.500 F 0.187 -0.255 20.6 V 0.70 0.66 o 691 0.60 Yes Yes
2016PR26 O C H 2016-08-24.20066 1.000E-05 22:18:47.700 1.500E-01 0.500 F -0.211 1.124 -18° 15' 09.60" 1.000E-01 0.500 F 0.040 0.208 o 691 2.32 Yes No
2016PB8 O C H 2016-08-24.20525 1.000E-05 22:15:19.200 1.500E-01 0.500 F -0.127 -0.107 -15° 58' 58.70" 1.000E-01 0.500 F 0.187 0.014 20.4 V 0.70 0.46 o 691 0.22 Yes Yes
2016PR26 O C H 2016-08-24.20756 1.000E-05 22:18:49.390 1.500E-01 0.500 F -0.211 0.589 -18° 14' 48.90" 1.000E-01 0.500 F 0.040 0.035 o 691 1.19 Yes No
2016PB8 O C H 2016-08-24.21216 1.000E-05 22:15:20.070 1.500E-01 0.500 F -0.127 -0.780 -15° 59' 13.10" 1.000E-01 0.500 F 0.187 -0.407 20.5 V 0.70 0.56 o 691 1.77 Yes Yes
2016PR26 O C H 2016-08-24.21447 1.000E-05 22:18:51.160 1.500E-01 0.500 F -0.211 1.225 -18° 14' 28.60" 1.000E-01 0.500 F 0.040 -0.607 o 691 2.76 Yes No
2016PJ66 O C H 2016-08-24.21718 1.000E-05 22:30:33.210 1.500E-01 0.500 F -0.138 -0.395 -24° 22' 29.50" 1.000E-01 0.500 F 0.510 0.297 o 691 1.00 Yes No
2016PJ66 O C H 2016-08-24.22180 1.000E-05 22:30:32.890 1.500E-01 0.500 F -0.138 0.044 -24° 22' 18.60" 1.000E-01 0.500 F 0.510 -1.396 o 691 2.81 Yes No
2003QR79 O C H 2016-08-24.22410 1.000E-05 22:37:30.690 1.500E-01 0.500 F -0.130 0.393 -09° 51' 30.40" 1.000E-01 0.500 F 0.304 -0.569 o 691 1.39 Yes No
2016PJ66 O C H 2016-08-24.22641 1.000E-05 22:30:32.470 1.500E-01 0.500 F -0.138 -0.876 -24° 22' 04.80" 1.000E-01 0.500 F 0.510 -0.173 o 691 1.80 Yes No
2003QR79 O C H 2016-08-24.22872 1.000E-05 22:37:29.600 1.500E-01 0.500 F -0.130 0.292 -09° 51' 18.10" 1.000E-01 0.500 F 0.304 -0.333 o 691 0.89 Yes No
2016PM O C H 2016-08-24.23282 1.000E-05 23:14:05.590 1.500E-01 0.500 F -0.356 -0.149 -11° 07' 14.20" 1.000E-01 0.500 F 0.242 0.142 19.8 V 0.70 0.65 o 691 0.42 Yes Yes
2016PM O C H 2016-08-24.23969 1.000E-05 23:14:05.870 1.500E-01 0.500 F -0.356 0.164 -11° 07' 40.20" 1.000E-01 0.500 F 0.242 0.110 19.9 V 0.70 0.75 o 691 0.40 Yes Yes
2016PA8 O C H 2016-08-24.24426 1.000E-05 23:29:07.250 1.500E-01 0.500 F -0.240 2.729 -10° 39' 00.10" 1.000E-01 0.500 F 0.310 -1.133 o 691 5.77 No No
2016PM O C H 2016-08-24.24659 1.000E-05 23:14:06.150 1.500E-01 0.500 F -0.356 0.493 -11° 08' 06.50" 1.000E-01 0.500 F 0.242 -0.115 o 691 1.02 Yes No
2016PA8 O C H 2016-08-24.25119 1.000E-05 23:29:05.370 1.500E-01 0.500 F -0.240 1.519 -10° 38' 52.60" 1.000E-01 0.500 F 0.310 -0.646 o 691 3.22 No No
2016PU O C H 2016-08-24.25786 1.000E-05 00:20:47.420 1.500E-01 0.500 F -0.204 -1.267 -05° 19' 04.00" 1.000E-01 0.500 F 0.273 1.533 20.0 V 0.70 0.65 o 691 3.81 No Yes
2016PU O C H 2016-08-24.25948 1.000E-05 00:20:48.200 1.500E-01 0.500 F -0.204 -0.166 -05° 19' 13.80" 1.000E-01 0.500 F 0.273 0.182 20.4 V 0.70 1.05 o 691 0.52 Yes Yes
2016PU O C H 2016-08-24.26110 1.000E-05 00:20:48.880 1.500E-01 0.500 F -0.204 -0.555 -05° 19' 22.20" 1.000E-01 0.500 F 0.273 0.231 19.8 V 0.70 0.45 o 691 1.26 Yes Yes
2014RW22 O C H 2016-08-24.26291 1.000E-05 01:19:21.550 1.500E-01 0.500 F -0.052 -0.487 +02° 56' 33.90" 1.000E-01 0.500 F 0.275 0.218 o 691 1.14 Yes No
2014RW22 O C H 2016-08-24.26455 1.000E-05 01:19:22.290 1.500E-01 0.500 F -0.052 -0.573 +02° 56' 44.90" 1.000E-01 0.500 F 0.275 -0.296 o 691 1.39 Yes No
2014RW22 O C H 2016-08-24.26616 1.000E-05 01:19:23.100 1.500E-01 0.500 F -0.052 0.607 +02° 56' 55.80" 1.000E-01 0.500 F 0.275 -0.698 o 691 1.94 Yes No
2016PN1 O C H 2016-08-24.26810 1.000E-05 01:36:14.510 1.500E-01 0.500 F -0.262 0.148 +03° 23' 27.90" 1.000E-01 0.500 F 0.270 -0.612 o 691 1.28 Yes No
2016PN1 O C H 2016-08-24.27038 1.000E-05 01:36:14.520 1.500E-01 0.500 F -0.262 0.316 +03° 23' 39.40" 1.000E-01 0.500 F 0.270 -0.572 o 691 1.33 Yes No
2016PN1 O C H 2016-08-24.27269 1.000E-05 01:36:14.500 1.500E-01 0.500 F -0.262 0.041 +03° 23' 52.00" 1.000E-01 0.500 F 0.270 0.419 o 691 0.85 Yes No
2016PL1 O C H 2016-08-24.44265 1.000E-05 01:24:07.140 1.500E-01 0.500 F -0.265 0.497 -28° 29' 59.50" 1.000E-01 0.500 F 0.300 -0.555 o 691 1.50 Yes No
2016PL1 O C H 2016-08-24.44497 1.000E-05 01:24:07.610 1.500E-01 0.500 F -0.265 0.847 -28° 30' 08.00" 1.000E-01 0.500 F 0.300 -1.362 o 691 3.18 No No
2016QD O C H 2016-08-24.46117 1.000E-05 02:53:25.410 1.500E-01 0.500 F -0.390 0.176 -00° 26' 30.00" 1.000E-01 0.500 F 0.147 0.088 19.6 V 0.70 0.22 o 691 0.40 Yes Yes
2010EH43 O C H 2016-08-24.46387 1.000E-05 03:05:45.620 1.500E-01 0.500 F -0.205 -0.018 +05° 16' 20.10" 1.000E-01 0.500 F 0.237 -0.303 o 691 0.61 Yes No
2016QD O C H 2016-08-24.46661 1.000E-05 02:53:26.250 1.500E-01 0.500 F -0.390 0.106 -00° 26' 18.40" 1.000E-01 0.500 F 0.147 0.320 19.6 V 0.70 0.22 o 691 0.68 Yes Yes
2010EH43 O C H 2016-08-24.46925 1.000E-05 03:05:45.630 1.500E-01 0.500 F -0.205 0.365 +05° 16' 31.40" 1.000E-01 0.500 F 0.237 -2.205 o 691 4.41 No No
2016QD O C H 2016-08-24.47190 1.000E-05 02:53:27.030 1.500E-01 0.500 F -0.390 -0.510 -00° 26' 08.00" 1.000E-01 0.500 F 0.147 -0.336 19.7 V 0.70 0.32 o 691 1.23 Yes Yes
2010EH43 O C H 2016-08-24.47455 1.000E-05 03:05:45.630 1.500E-01 0.500 F -0.205 0.600 +05° 16' 45.40" 1.000E-01 0.500 F 0.237 -1.211 o 691 2.74 Yes No
2005SE71 O C H 2016-08-24.47811 1.000E-05 04:20:55.000 1.500E-01 0.500 F -0.140 -0.005 -23° 12' 44.30" 1.000E-01 0.500 F 0.246 0.001 19.4 V 0.70 0.12 o 691 0.01 Yes Yes
2005SE71 O C H 2016-08-24.48041 1.000E-05 04:20:55.340 1.500E-01 0.500 F -0.140 0.208 -23° 12' 42.80" 1.000E-01 0.500 F 0.246 0.012 19.3 V 0.70 0.02 o 691 0.42 Yes Yes
2016LX48 O C H 2016-08-25.14290 1.000E-05 15:25:08.650 1.500E-01 0.500 F 0.021 0.328 -20° 29' 32.50" 1.000E-01 0.500 F -0.127 0.152 18.8 V 0.70 0.80 o 691 0.72 Yes Yes
2016LX48 O C H 2016-08-25.14448 1.000E-05 15:25:08.890 1.500E-01 0.500 F 0.021 -0.289 -20° 29' 28.00" 1.000E-01 0.500 F -0.127 0.107 19.0 V 0.70 1.00 o 691 0.62 Yes Yes
2016LX48 O C H 2016-08-25.14610 1.000E-05 15:25:09.210 1.500E-01 0.500 F 0.021 0.111 -20° 29' 23.30" 1.000E-01 0.500 F -0.127 0.145 19.1 V 0.70 1.10 o 691 0.37 Yes Yes
2016QU1 O C H 2016-08-25.14933 1.000E-05 16:46:34.140 1.500E-01 0.500 F 0.038 0.347 +22° 15' 29.20" 1.000E-01 0.500 F 0.183 -0.398 o 691 1.06 Yes No
2016QU1 O C H 2016-08-25.15161 1.000E-05 16:46:33.270 1.500E-01 0.500 F 0.038 -0.365 +22° 15' 27.70" 1.000E-01 0.500 F 0.183 -0.662 o 691 1.52 Yes No
2016QU1 O C H 2016-08-25.15391 1.000E-05 16:46:32.480 1.500E-01 0.500 F 0.038 0.131 +22° 15' 26.20" 1.000E-01 0.500 F 0.183 -0.914 o 691 1.86 Yes No
2016PR38 O C H 2016-08-25.16089 1.000E-05 20:42:19.390 1.500E-01 0.500 F -0.053 0.019 -04° 55' 01.00" 1.000E-01 0.500 F 0.275 -0.187 20.3 V 0.70 0.28 o 691 0.38 Yes Yes
2015KE O C H 2016-08-25.16301 1.000E-05 21:03:12.550 1.500E-01 0.500 F -0.036 0.196 -01° 38' 24.90" 1.000E-01 0.500 F 0.142 -0.456 o 691 1.03 Yes No
2016PR38 O C H 2016-08-25.16516 1.000E-05 20:42:18.850 1.500E-01 0.500 F -0.053 -0.341 -04° 55' 04.70" 1.000E-01 0.500 F 0.275 -0.180 20.3 V 0.70 0.28 o 691 0.78 Yes Yes
2015KE O C H 2016-08-25.16729 1.000E-05 21:03:10.540 1.500E-01 0.500 F -0.036 -0.895 -01° 38' 28.30" 1.000E-01 0.500 F 0.142 -0.367 o 691 2.04 Yes No
2016PR38 O C H 2016-08-25.16945 1.000E-05 20:42:18.320 1.500E-01 0.500 F -0.053 -0.503 -04° 55' 08.50" 1.000E-01 0.500 F 0.275 -0.256 20.1 V 0.70 0.08 o 691 1.14 Yes Yes
2015KE O C H 2016-08-25.17158 1.000E-05 21:03:08.720 1.500E-01 0.500 F -0.036 1.004 -01° 38' 31.60" 1.000E-01 0.500 F 0.142 -0.172 o 691 2.15 Yes No
2016PA40 O C H 2016-08-25.17441 1.000E-05 21:16:43.830 1.500E-01 0.500 F 0.021 0.211 +02° 37' 16.10" 1.000E-01 0.500 F 0.257 -0.483 18.4 V 0.70 -0.43 o 691 1.09 Yes Yes
2016PA40 O C H 2016-08-25.17671 1.000E-05 21:16:41.320 1.500E-01 0.500 F 0.021 -0.052 +02° 37' 48.60" 1.000E-01 0.500 F 0.257 0.177 18.4 V 0.70 -0.43 o 691 0.38 Yes Yes
2016PA40 O C H 2016-08-25.17902 1.000E-05 21:16:38.810 1.500E-01 0.500 F 0.021 -0.120 +02° 38' 20.50" 1.000E-01 0.500 F 0.257 0.090 19.0 V 0.70 0.17 o 691 0.31 Yes Yes
2016PP39 O C H 2016-08-25.19682 1.000E-05 22:11:14.710 1.500E-01 0.500 F -0.133 0.375 -12° 33' 36.90" 1.000E-01 0.500 F 0.255 -1.238 o 691 2.66 Yes No
2016PB8 O C H 2016-08-25.19913 1.000E-05 22:17:46.930 1.500E-01 0.500 F -0.202 0.066 -16° 32' 32.40" 1.000E-01 0.500 F 0.219 -0.525 20.3 V 0.70 0.38 o 691 1.07 Yes Yes
2016PR26 O C H 2016-08-25.20142 1.000E-05 22:23:25.690 1.500E-01 0.500 F -0.145 -0.046 -17° 21' 33.60" 1.000E-01 0.500 F 0.221 -0.486 o 691 0.99 Yes No
2003QR79 O C H 2016-08-25.20372 1.000E-05 22:33:47.030 1.500E-01 0.500 F -0.172 0.385 -09° 07' 35.20" 1.000E-01 0.500 F 0.340 -0.268 18.8 V 0.70 0.35 o 691 0.94 Yes Yes
2016PP39 O C H 2016-08-25.20834 1.000E-05 22:11:14.130 1.500E-01 0.500 F -0.133 -0.098 -12° 32' 56.60" 1.000E-01 0.500 F 0.255 -0.532 o 691 1.11 Yes No
2016PB8 O C H 2016-08-25.21068 1.000E-05 22:17:48.500 1.500E-01 0.500 F -0.202 -0.660 -16° 32' 56.30" 1.000E-01 0.500 F 0.219 -0.102 o 691 1.34 Yes No
2016PR26 O C H 2016-08-25.21299 1.000E-05 22:23:28.740 1.500E-01 0.500 F -0.145 0.224 -17° 20' 56.20" 1.000E-01 0.500 F 0.221 -0.695 o 691 1.48 Yes No
2003QR79 O C H 2016-08-25.21529 1.000E-05 22:33:44.220 1.500E-01 0.500 F -0.172 0.472 -09° 07' 03.90" 1.000E-01 0.500 F 0.340 -0.539 18.5 V 0.70 0.05 o 691 1.44 Yes Yes
2016PP39 O C H 2016-08-25.21989 1.000E-05 22:11:13.620 1.500E-01 0.500 F -0.133 0.566 -12° 32' 18.10" 1.000E-01 0.500 F 0.255 -1.757 o 691 3.59 No No
2016PB8 O C H 2016-08-25.22220 1.000E-05 22:17:50.130 1.500E-01 0.500 F -0.202 -0.364 -16° 33' 20.70" 1.000E-01 0.500 F 0.219 -0.274 20.2 V 0.70 0.29 o 691 0.92 Yes Yes
2016PR26 O C H 2016-08-25.22451 1.000E-05 22:23:31.750 1.500E-01 0.500 F -0.145 0.294 -17° 20' 17.90" 1.000E-01 0.500 F 0.221 0.048 o 691 0.60 Yes No
2003QR79 O C H 2016-08-25.22682 1.000E-05 22:33:41.410 1.500E-01 0.500 F -0.172 0.541 -09° 06' 32.50" 1.000E-01 0.500 F 0.340 -0.637 18.6 V 0.70 0.15 o 691 1.68 Yes Yes
2016PJ66 O C H 2016-08-25.22964 1.000E-05 22:29:27.020 1.500E-01 0.500 F -0.138 0.011 -23° 34' 42.10" 1.000E-01 0.500 F 0.510 -0.150 o 691 0.30 Yes No
2016PJ66 O C H 2016-08-25.23192 1.000E-05 22:29:26.850 1.500E-01 0.500 F -0.138 0.149 -23° 34' 35.80" 1.000E-01 0.500 F 0.510 -0.338 o 691 0.74 Yes No
2016PJ66 O C H 2016-08-25.23422 1.000E-05 22:29:26.690 1.500E-01 0.500 F -0.138 0.450 -23° 34' 29.30" 1.000E-01 0.500 F 0.510 -0.386 o 691 1.19 Yes No
2016PA8 O C H 2016-08-25.24160 1.000E-05 23:24:55.080 1.500E-01 0.500 F -0.260 -0.505 -10° 21' 42.70" 1.000E-01 0.500 F 0.325 -0.565 o 691 1.54 Yes No
2016PA8 O C H 2016-08-25.24758 1.000E-05 23:24:53.470 1.500E-01 0.500 F -0.260 -1.101 -10° 21' 36.20" 1.000E-01 0.500 F 0.325 -0.210 o 691 2.29 Yes No
2016PA8 O C H 2016-08-25.25355 1.000E-05 23:24:52.150 1.500E-01 0.500 F -0.260 2.568 -10° 21' 30.90" 1.000E-01 0.500 F 0.325 -1.051 o 691 5.44 No No
2016PU O C H 2016-08-25.25651 1.000E-05 00:28:21.260 1.500E-01 0.500 F -0.255 0.846 -06° 46' 58.70" 1.000E-01 0.500 F 0.279 -0.927 19.4 V 0.70 0.08 o 691 2.64 Yes Yes
2016RW33 O C 2016-08-25.25651 1.000E-05 00:24:24.680 1.500E-01 0.500 F -0.276 -0.486 -06° 43' 17.10" 1.000E-01 0.500 F 0.273 0.298 20.2 V 0.70 -0.04 o 691 1.16 Yes Yes
2016PU O C H 2016-08-25.25880 1.000E-05 00:28:22.210 1.500E-01 0.500 F -0.255 -0.329 -06° 47' 10.40" 1.000E-01 0.500 F 0.279 -0.295 19.7 V 0.70 0.38 o 691 0.91 Yes Yes
2016RW33 O C 2016-08-25.25880 1.000E-05 00:24:24.370 1.500E-01 0.500 F -0.276 0.023 -06° 43' 14.60" 1.000E-01 0.500 F 0.273 0.020 20.3 V 0.70 0.06 o 691 0.06 Yes Yes
2016PU O C H 2016-08-25.26109 1.000E-05 00:28:23.310 1.500E-01 0.500 F -0.255 0.738 -06° 47' 23.30" 1.000E-01 0.500 F 0.279 -0.862 19.7 V 0.70 0.38 o 691 2.39 Yes Yes
2016RW33 O C 2016-08-25.26109 1.000E-05 00:24:23.990 1.500E-01 0.500 F -0.276 -0.508 -06° 43' 12.00" 1.000E-01 0.500 F 0.273 -0.158 20.5 V 0.70 0.26 o 691 1.08 Yes Yes
2014RW22 O C H 2016-08-25.27909 1.000E-05 01:27:19.930 1.500E-01 0.500 F -0.144 0.373 +04° 53' 01.90" 1.000E-01 0.500 F 0.260 -0.618 o 691 1.50 Yes No
2016PN1 O C H 2016-08-25.28109 1.000E-05 01:36:17.230 1.500E-01 0.612 F -0.280 0.438 +04° 47' 40.70" 1.000E-01 0.612 F 0.202 -0.640 o 691 1.28 Yes No
2014RW22 O C H 2016-08-25.28951 1.000E-05 01:27:24.450 1.500E-01 0.500 F -0.144 0.276 +04° 54' 13.30" 1.000E-01 0.500 F 0.260 -0.314 o 691 0.87 Yes No
2016PN1 O C H 2016-08-25.29151 1.000E-05 01:36:17.140 1.500E-01 0.612 F -0.280 0.144 +04° 48' 33.00" 1.000E-01 0.612 F 0.202 -0.176 o 691 0.38 Yes No
2014RW22 O C H 2016-08-25.29999 1.000E-05 01:27:28.960 1.500E-01 0.500 F -0.144 0.116 +04° 55' 24.30" 1.000E-01 0.500 F 0.260 -0.771 o 691 1.62 Yes No
2016PN1 O C H 2016-08-25.30198 1.000E-05 01:36:17.070 1.500E-01 0.612 F -0.280 0.281 +04° 49' 24.70" 1.000E-01 0.612 F 0.202 -0.549 o 691 1.02 Yes No
2016PN1 O C 2016-08-25.33388 1.000E-05 01:36:16.760 1.500E-01 0.612 F -0.280 -0.025 +04° 52' 03.90" 1.000E-01 0.612 F 0.202 0.077 19.3 V 0.70 0.35 o 691 0.13 Yes Yes
2016PN1 O C 2016-08-25.33621 1.000E-05 01:36:16.710 1.500E-01 0.612 F -0.280 -0.416 +04° 52' 15.10" 1.000E-01 0.612 F 0.202 -0.300 19.1 V 0.70 0.15 o 691 0.84 Yes Yes
2016PN1 O C 2016-08-25.33852 1.000E-05 01:36:16.650 1.500E-01 0.612 F -0.280 -0.956 +04° 52' 26.60" 1.000E-01 0.612 F 0.202 -0.277 19.3 V 0.70 0.35 o 691 1.64 Yes Yes
2004CO49 O C H 2016-08-25.34121 1.000E-05 01:24:40.680 1.500E-01 0.500 F -0.216 0.980 -08° 10' 39.80" 1.000E-01 0.500 F 0.018 -0.527 o 691 2.30 Yes No
2004CO49 O C H 2016-08-25.34351 1.000E-05 01:24:41.220 1.500E-01 0.500 F -0.216 -0.342 -08° 10' 41.00" 1.000E-01 0.500 F 0.018 -0.117 o 691 0.75 Yes No
2004CO49 O C H 2016-08-25.34585 1.000E-05 01:24:41.860 1.500E-01 0.500 F -0.216 -0.338 -08° 10' 42.70" 1.000E-01 0.500 F 0.018 -0.179 o 691 0.79 Yes No
2016QD O C H 2016-08-25.35569 1.000E-05 02:55:51.000 1.500E-01 0.500 F -0.341 0.190 +00° 04' 48.60" 1.000E-01 0.500 F 0.168 0.108 19.8 V 0.70 0.44 o 691 0.44 Yes Yes
2016QD O C 2016-08-25.36699 1.000E-05 02:55:52.700 1.500E-01 0.500 F -0.341 -0.887 +00° 05' 12.50" 1.000E-01 0.500 F 0.168 0.161 19.6 V 0.70 0.24 o 691 1.81 Yes Yes
2010EH43 O C H 2016-08-25.36930 1.000E-05 03:05:46.350 1.500E-01 0.500 F -0.205 0.164 +05° 53' 42.50" 1.000E-01 0.500 F 0.237 -0.338 20.3 V 0.70 0.17 o 691 0.76 Yes Yes
2016QD O C H 2016-08-25.37834 1.000E-05 02:55:54.540 1.500E-01 0.500 F -0.341 0.091 +00° 05' 36.40" 1.000E-01 0.500 F 0.168 0.106 19.7 V 0.70 0.34 o 691 0.28 Yes Yes
2010EH43 O C H 2016-08-25.38065 1.000E-05 03:05:46.250 1.500E-01 0.500 F -0.205 -0.572 +05° 54' 11.10" 1.000E-01 0.500 F 0.237 -0.213 20.1 V 0.70 -0.02 o 691 1.23 Yes Yes
2016NG23 O C H 2016-08-27.16600 1.000E-05 20:43:55.590 1.500E-01 0.500 F -0.025 -0.035 +06° 59' 42.10" 1.000E-01 0.500 F 0.282 0.166 20.4 V 0.70 0.10 o 691 0.34 Yes Yes
2016PW38 O C H 2016-08-27.17074 1.000E-05 21:47:55.480 1.500E-01 0.500 F -0.101 0.345 -01° 15' 59.30" 1.000E-01 0.500 F 0.218 -0.091 21.3 V 0.70 0.55 o 691 0.72 Yes Yes
2016PW38 O C H 2016-08-27.18319 1.000E-05 21:47:56.610 1.500E-01 0.500 F -0.101 -0.045 -01° 16' 22.60" 1.000E-01 0.500 F 0.218 0.311 21.2 V 0.70 0.45 o 691 0.64 Yes Yes
2016NG23 O C H 2016-08-27.19120 1.000E-05 20:43:56.370 1.500E-01 0.500 F -0.025 -0.015 +06° 59' 39.70" 1.000E-01 0.500 F 0.282 0.166 20.4 V 0.70 0.10 o 691 0.34 Yes Yes
2016PW38 O C H 2016-08-27.19671 1.000E-05 21:47:57.850 1.500E-01 0.500 F -0.101 -0.157 -01° 16' 48.80" 1.000E-01 0.500 F 0.218 -0.157 21.0 V 0.70 0.25 o 691 0.45 Yes Yes
2000GW127 O C H 2016-08-28.25468 1.000E-05 23:05:24.530 1.500E-01 0.500 F -0.218 -0.751 -14° 40' 29.30" 1.000E-01 0.500 F 0.226 -0.284 20.6 V 0.70 0.20 o 691 1.62 Yes Yes
2016PM O C 2016-08-28.26442 1.000E-05 23:16:53.240 1.500E-01 0.500 F -0.173 -0.148 -15° 15' 38.60" 1.000E-01 0.500 F 0.250 -0.018 o 691 0.30 Yes No
2000GW127 O C H 2016-08-28.26679 1.000E-05 23:05:23.380 1.500E-01 0.500 F -0.218 -0.192 -14° 40' 43.50" 1.000E-01 0.500 F 0.226 0.209 20.6 V 0.70 0.20 o 691 0.57 Yes Yes
2016PM O C 2016-08-28.27654 1.000E-05 23:16:53.580 1.500E-01 0.500 F -0.173 -0.311 -15° 16' 22.70" 1.000E-01 0.500 F 0.250 -0.118 o 691 0.67 Yes No
2000GW127 O C H 2016-08-28.27890 1.000E-05 23:05:22.220 1.500E-01 0.500 F -0.218 0.256 -14° 40' 58.20" 1.000E-01 0.500 F 0.226 0.192 20.5 V 0.70 0.10 o 691 0.64 Yes Yes
2016PM O C 2016-08-28.28861 1.000E-05 23:16:53.920 1.500E-01 0.500 F -0.173 -0.394 -15° 17' 06.10" 1.000E-01 0.500 F 0.250 0.261 o 691 0.95 Yes No
2016QZ10 O C H 2016-08-28.30284 1.000E-05 23:13:18.760 1.500E-01 0.500 F -0.208 1.165 -10° 28' 48.60" 1.000E-01 0.500 F 0.291 1.667 21.6 V 0.70 -0.08 o 691 4.02 No Yes
2016QJ10 O C 2016-08-28.30586 1.000E-05 22:49:30.350 1.500E-01 0.500 F -0.063 0.595 +01° 05' 44.20" 1.000E-01 0.500 F 0.255 0.365 o 691 1.41 Yes No
2016QZ10 O C H 2016-08-28.31349 1.000E-05 23:13:18.850 1.500E-01 0.500 F -0.208 -0.171 -10° 28' 40.80" 1.000E-01 0.500 F 0.291 -0.228 21.3 V 0.70 -0.38 o 691 0.58 Yes Yes
2016QJ10 O C 2016-08-28.31652 1.000E-05 22:49:30.890 1.500E-01 0.500 F -0.063 0.136 +01° 05' 45.40" 1.000E-01 0.500 F 0.255 0.317 o 691 0.69 Yes No
2016QZ10 O C H 2016-08-28.32420 1.000E-05 23:13:19.040 1.500E-01 0.500 F -0.208 -0.022 -10° 28' 31.50" 1.000E-01 0.500 F 0.291 -0.700 21.7 V 0.70 0.02 o 691 1.42 Yes Yes
2016QJ10 O C 2016-08-28.32723 1.000E-05 22:49:31.450 1.500E-01 0.500 F -0.063 -0.059 +01° 05' 46.40" 1.000E-01 0.500 F 0.255 0.068 o 691 0.18 Yes No
2016QD44 O C H 2016-08-28.34452 1.000E-05 23:48:47.020 1.500E-01 0.500 F -0.088 1.194 -12° 21' 14.30" 1.000E-01 0.500 F 0.289 0.139 21.5 V 0.70 -0.02 o 691 2.42 Yes Yes
2016QD44 O C H 2016-08-28.35890 1.000E-05 23:48:44.910 1.500E-01 0.500 F -0.088 1.338 -12° 21' 16.60" 1.000E-01 0.500 F 0.289 0.247 21.5 V 0.70 -0.02 o 691 2.74 Yes Yes
2016QD44 O C H 2016-08-28.37327 1.000E-05 23:48:42.740 1.500E-01 0.500 F -0.088 0.581 -12° 21' 19.50" 1.000E-01 0.500 F 0.289 -0.259 21.4 V 0.70 -0.12 o 691 1.28 Yes Yes
2016QF44 O C H 2016-08-28.39236 1.000E-05 01:43:46.840 1.500E-01 0.500 F -0.160 0.308 +05° 44' 10.80" 1.000E-01 0.500 F 0.232 -0.549 o 691 1.27 Yes No
2004CO49 O C H 2016-08-28.39465 1.000E-05 01:40:13.930 1.500E-01 0.500 F -0.271 0.118 -08° 48' 26.40" 1.000E-01 0.500 F 0.264 -0.899 o 691 1.86 Yes No
2016QF44 O C H 2016-08-28.40222 1.000E-05 01:43:48.580 1.500E-01 0.500 F -0.160 1.538 +05° 44' 16.00" 1.000E-01 0.500 F 0.232 -0.242 o 691 3.14 Yes No
2004CO49 O C H 2016-08-28.41441 1.000E-05 01:40:20.170 1.500E-01 0.500 F -0.271 0.719 -08° 48' 41.90" 1.000E-01 0.500 F 0.264 -0.379 o 691 1.70 Yes No
2016LX48 O C 2016-08-29.13707 1.000E-05 15:40:47.670 1.500E-01 0.500 F -0.053 2.095 -16° 41' 08.70" 1.000E-01 0.500 F 0.180 1.761 19.4 V 0.70 1.73 o 691 5.46 No Yes
2016LX48 O C 2016-08-29.14834 1.000E-05 15:40:50.420 1.500E-01 0.500 F -0.053 0.673 -16° 40' 22.30" 1.000E-01 0.500 F 0.180 -0.364 17.8 V 0.70 0.13 o 691 1.53 Yes Yes
2016LX48 O C 2016-08-29.15961 1.000E-05 15:40:53.230 1.500E-01 0.500 F -0.053 -0.187 -16° 39' 33.20" 1.000E-01 0.500 F 0.180 0.074 18.3 V 0.70 0.63 o 691 0.40 Yes Yes
2016PP39 O C H 2016-08-29.26423 1.000E-05 22:08:47.250 1.500E-01 0.500 F -0.022 0.801 -08° 40' 16.40" 1.000E-01 0.500 F 0.224 -1.041 21.2 V 0.70 0.49 o 691 2.69 Yes Yes
2008CJ116 O C 2016-08-29.27050 1.000E-05 22:26:25.440 1.500E-01 0.500 F -0.250 -0.007 -08° 51' 42.10" 1.000E-01 0.500 F 0.274 0.091 16.8 V 0.70 0.12 o 691 0.18 Yes Yes
2016QY10 O C H 2016-08-29.27514 1.000E-05 22:56:09.320 1.500E-01 0.500 F -0.169 -0.051 -17° 27' 08.60" 1.000E-01 0.500 F 0.214 -0.168 20.6 V 0.70 -0.29 o 691 0.36 Yes Yes
2016PP39 O C H 2016-08-29.28027 1.000E-05 22:08:46.390 1.500E-01 0.500 F -0.052 -0.821 -08° 39' 20.70" 1.000E-01 0.500 F 0.263 0.044 20.8 V 0.70 0.08 o 691 1.67 Yes Yes
2008CJ116 O C 2016-08-29.28655 1.000E-05 22:26:23.440 1.500E-01 0.500 F -0.250 -1.339 -08° 50' 51.00" 1.000E-01 0.500 F 0.274 -0.144 16.9 V 0.70 0.22 o 691 2.71 Yes Yes
2016QY10 O C H 2016-08-29.29119 1.000E-05 22:56:10.350 1.500E-01 0.500 F -0.169 -0.396 -17° 27' 58.90" 1.000E-01 0.500 F 0.214 0.420 21.0 V 0.70 0.11 o 691 1.17 Yes Yes
2016PP39 O C H 2016-08-29.29633 1.000E-05 22:08:45.520 1.500E-01 0.500 F -0.052 -2.586 -08° 38' 26.10" 1.000E-01 0.500 F 0.263 -0.038 20.9 V 0.70 0.18 o 691 5.10 No Yes
2008CJ116 O C 2016-08-29.30255 1.000E-05 22:26:21.590 1.500E-01 0.500 F -0.250 -0.486 -08° 49' 59.60" 1.000E-01 0.500 F 0.274 0.010 16.9 V 0.70 0.22 o 691 0.98 Yes Yes
2016QY10 O C H 2016-08-29.30718 1.000E-05 22:56:11.420 1.500E-01 0.500 F -0.169 -0.028 -17° 28' 50.20" 1.000E-01 0.500 F 0.214 -0.282 21.1 V 0.70 0.21 o 691 0.58 Yes Yes
2016QD44 O C H 2016-08-29.32936 1.000E-05 23:46:24.810 1.500E-01 0.500 F -0.155 1.010 -12° 23' 56.10" 1.000E-01 0.500 F 0.139 -1.302 21.5 V 0.70 -0.01 o 691 3.27 No Yes
2016QD44 O C H 2016-08-29.34322 1.000E-05 23:46:22.680 1.500E-01 0.500 F -0.155 -0.361 -12° 23' 57.60" 1.000E-01 0.500 F 0.139 -0.586 21.5 V 0.70 -0.01 o 691 1.39 Yes Yes
2016QD44 O C H 2016-08-29.35702 1.000E-05 23:46:20.460 1.500E-01 0.500 F -0.155 -3.176 -12° 24' 00.10" 1.000E-01 0.500 F 0.139 -0.890 21.6 V 0.70 0.09 o 691 6.55 No Yes
2016OJ1 O C H 2016-08-29.38470 1.000E-05 00:55:47.770 1.500E-01 0.500 F -0.207 -0.210 -21° 38' 13.50" 1.000E-01 0.500 F 0.042 0.005 20.3 V 0.70 0.28 o 691 0.43 Yes Yes
2011SS25 O C 2016-08-29.39091 1.000E-05 01:06:55.580 1.500E-01 0.500 F -0.165 -0.161 -27° 30' 40.10" 1.000E-01 0.500 F 0.439 -0.134 20.7 V 0.70 -0.51 o 691 0.42 Yes Yes
2016PN8 O C 2016-08-29.39413 1.000E-05 01:23:19.310 1.500E-01 0.500 F -0.312 -0.675 -13° 31' 18.80" 1.000E-01 0.500 F 0.268 -0.090 20.9 V 0.70 -0.17 o 691 1.37 Yes Yes
2016NH33 O C H 2016-08-29.39687 1.000E-05 00:08:24.880 1.500E-01 0.500 F -0.164 0.506 +17° 25' 55.00" 1.000E-01 0.500 F 0.401 -0.707 21.3 V 0.70 0.07 o 691 1.76 Yes Yes
2016OJ1 O C H 2016-08-29.39987 1.000E-05 00:55:52.300 1.500E-01 0.500 F -0.207 0.132 -21° 38' 00.10" 1.000E-01 0.500 F 0.042 -0.025 20.4 V 0.70 0.38 o 691 0.28 Yes Yes

[1-200] [201-400] [401-600] [601-800] [801-1000] [1001-1200] [1201-1400] [1401-1600] [1601-1800] [1801-2000] [2001-2200] [2201-2400] [2401-2600] [2601-2800] [2801-3000] [3001-3200] [3201-3400] [3401-3600] [3601-3800] [3801-4000] [4001-4200] [4201-4400] [4401-4600] [4601-4800] [4801-5000] [5001-5200] [5201-5400] [5401-5600] [5601-5800] [5801-6000] [6001-6200] [6201-6400] [6401-6600] [6601-6800] [6801-7000] [7001-7200] [7201-7400] [7401-7600] [7601-7800] [7801-8000] [8001-8200] [8201-8400] [8401-8600] [8601-8800] [8801-9000] [9001-9200] [9201-9400] [9401-9600] [9601-9800] [9801-10000] [10001-10200] [10201-10400] [10401-10600] [10601-10800] [10801-11000] [11001-11200] [11201-11400] [11401-11600] [11601-11800] [11801-12000] [12001-12200] [12201-12400] [12401-12600] [12601-12800] [12801-13000] [13001-13200] [13201-13400] [13401-13600] [13601-13800] [13801-14000] [14001-14200] [14201-14400] [14401-14600] [14601-14800] [14801-15000] [15001-15200] [15201-15400] [15401-15600] [15601-15800] [15801-16000] [16001-16200] [16201-16400] [16401-16600] [16601-16800] [16801-17000] [17001-17200] [17201-17400] [17401-17600] [17601-17800] [17801-18000] [18001-18200] [18201-18400] [18401-18600] [18601-18800] [18801-19000] [19001-19200] [19201-19400] [19401-19600] [19601-19800] [19801-20000] [20001-20200] [20201-20400] [20401-20600] [20601-20800] [20801-21000] [21001-21200] [21201-21400] [21401-21600] [21601-21800] [21801-22000] [22001-22200] [22201-22400] [22401-22600] [22601-22800] [22801-23000] [23001-23200] [23201-23400] [23401-23600] [23601-23800] [23801-24000] [24001-24200] [24201-24400] [24401-24600] [24601-24800] [24801-25000] [25001-25200] [25201-25400] [25401-25600] [25601-25800] [25801-26000] [26001-26200] [26201-26400] [26401-26600] [26601-26800] [26801-27000] [27001-27200] [27201-27400] [27401-27600] [27601-27800] [27801-28000] [28001-28200] [28201-28400] [28401-28600] [28601-28800] [28801-29000] [29001-29200] [29201-29400] [29401-29600] [29601-29800] [29801-30000] [30001-30200] [30201-30400] [30401-30600] [30601-30800] [30801-31000] [31001-31200] [31201-31400] [31401-31600] [31601-31800] [31801-32000] [32001-32200] [32201-32400] [32401-32600] [32601-32800] [32801-33000] [33001-33200] [33201-33400] [33401-33600] [33601-33800] [33801-34000] [34001-34200] [34201-34400] [34401-34600] [34601-34800] [34801-35000] [35001-35200] [35201-35400] [35401-35600] [35601-35800] [35801-36000] [36001-36200] [36201-36400] [36401-36600] [36601-36800] [36801-37000] [37001-37200] [37201-37400] [37401-37600] [37601-37800] [37801-38000] [38001-38200] [38201-38400] [38401-38600] [38601-38800] [38801-39000] [39001-39200] [39201-39400] [39401-39600] [39601-39800] [39801-40000] [40001-40200] [40201-40400] [40401-40600] [40601-40800] [40801-41000] [41001-41200] [41201-41400] [41401-41600] [41601-41800] [41801-42000] [42001-42200] [42201-42400] [42401-42600] [42601-42800] [42801-43000] [43001-43200] [43201-43400] [43401-43600] [43601-43800] [43801-44000] [44001-44200] [44201-44400] [44401-44600] [44601-44800] [44801-45000] [45001-45200] [45201-45400] [45401-45600] [45601-45800] [45801-46000] [46001-46200] [46201-46400] [46401-46600] [46601-46800] [46801-47000] [47001-47200] [47201-47400] [47401-47600] [47601-47800] [47801-48000] [48001-48200] [48201-48400] [48401-48600] [48601-48800] [48801-49000] [49001-49200] [49201-49400] [49401-49600] [49601-49800] [49801-50000] [50001-50200] [50201-50388]